KMKT

Mankato Regional Airport

Mankato, Minnesota, USA
METAR KMKT 182029Z AUTO 04010KT 3/4SM -SN OVC014 M12/M14 A3020 RMK AO2 P0000 FZRANO
Observed Flight Rules
Jan-18 @ 20:29 UTC (16 minutes ago) Instrument Flight Rules
Wind Visibility Clouds Conditions
40° at 10 knots 3/4 miles
  • Overcast at 1,400' AGL
  • Light Snow
Temperatures Readings Precipitation
Current -12°C / 10°F
Dewpoint -14°C / 7°F
Humidity 85%
Altimeter 30.2" Hg
Pressure 1022.72 hPa
Elevation 311
Current Rain 0.01
METAR KMKT 182029Z AUTO 04010KT 3/4SM -SN OVC014 M12/M14 A3020 RMK AO2 P0000 FZRANO
Observed Flight Rules
Jan-18 @ 20:29 UTC
(16 minutes ago)
LIFR
Wind Visibility
40° at 10 knots 3/4 miles
Clouds
  • Overcast at 1,400' AGL
Conditions
  • Light Snow
Temperature Dewpoint
-12°C / 10°F -14°C / 7°F
Humidity Altimeter Pressure
85% 30.2" Hg 1022.72 hPa
Current Rain
0.01